Time;durP1;ratioP1;P1;durP2;ratioP2;P2;SDS_P1;SDS_P2;PMS_P1;PMS_P2;Temp;Humidity;BMP_temperature;BMP_pressure;BME280_temperature;BME280_humidity;BME280_pressure;Samples;Min_cycle;Max_cycle;Signal;HPM_P1;HPM_P2
2022/03/25 00:00:00;;;;;;;104.38;63.72;;;5.60;99.90;;;;;;5037580;28;20079;-77
2022/03/25 00:02:26;;;;;;;101.57;64.05;;;5.50;99.90;;;;;;5054267;28;20060;-77
2022/03/25 00:04:55;;;;;;;95.78;59.22;;;5.50;99.90;;;;;;5020795;28;20044;-79
2022/03/25 00:07:27;;;;;;;104.68;63.05;;;5.30;99.90;;;;;;5037070;28;20044;-79
2022/03/25 00:10:01;;;;;;;102.60;64.55;;;5.40;99.90;;;;;;5020574;28;20045;-78
2022/03/25 00:12:29;;;;;;;93.53;58.33;;;5.50;99.90;;;;;;5038111;28;20037;-79
2022/03/25 00:14:55;;;;;;;95.05;59.50;;;5.40;99.90;;;;;;5041373;28;20037;-77
2022/03/25 00:17:25;;;;;;;97.28;61.30;;;5.30;99.90;;;;;;5040674;28;20351;-77
2022/03/25 00:19:51;;;;;;;97.50;60.80;;;5.20;99.90;;;;;;5041152;28;20123;-78
2022/03/25 00:22:19;;;;;;;92.07;55.78;;;5.10;99.90;;;;;;5058025;28;20446;-78
2022/03/25 00:24:48;;;;;;;87.57;55.45;;;5.00;99.90;;;;;;5024801;28;20116;-78
2022/03/25 00:27:19;;;;;;;87.15;54.92;;;5.00;99.90;;;;;;5057851;28;20037;-77
2022/03/25 00:29:49;;;;;;;;;;;5.00;99.90;;;;;;5041473;28;20048;-78
2022/03/25 00:32:21;;;;;;;95.38;57.83;;;5.00;99.90;;;;;;5058100;28;19916;-78
2022/03/25 00:34:49;;;;;;;91.97;57.63;;;5.00;99.90;;;;;;5040185;28;20505;-77
2022/03/25 00:37:19;;;;;;;89.97;57.10;;;5.00;99.90;;;;;;5058031;28;20053;-77
2022/03/25 00:39:49;;;;;;;95.95;58.03;;;5.00;99.90;;;;;;5058118;28;20045;-77
2022/03/25 00:42:43;;;;;;;;;;;5.00;99.90;;;;;;5057240;28;20053;-78
2022/03/25 00:45:25;;;;;;;95.18;54.60;;;5.00;99.90;;;;;;5039760;28;19916;-77
2022/03/25 00:48:02;;;;;;;93.55;56.45;;;5.20;99.90;;;;;;5057601;28;20049;-78
2022/03/25 00:50:32;;;;;;;92.70;55.40;;;5.00;99.90;;;;;;5040517;28;20041;-78
2022/03/25 00:53:00;;;;;;;92.45;56.10;;;5.00;99.90;;;;;;5057398;28;20044;-78
2022/03/25 00:55:35;;;;;;;85.70;53.88;;;5.00;99.90;;;;;;5040049;28;20048;-78
2022/03/25 00:58:03;;;;;;;91.03;56.40;;;5.00;99.90;;;;;;5057455;28;20045;-78
2022/03/25 01:00:29;;;;;;;91.25;56.97;;;4.90;99.90;;;;;;5040539;28;20052;-77
2022/03/25 01:02:54;;;;;;;84.03;54.88;;;4.90;99.90;;;;;;5057547;28;20041;-78
2022/03/25 01:05:23;;;;;;;92.55;58.60;;;4.90;99.90;;;;;;5040206;28;20421;-77
2022/03/25 01:07:48;;;;;;;85.30;55.92;;;4.80;99.90;;;;;;5057733;28;20148;-77
2022/03/25 01:10:14;;;;;;;89.05;53.95;;;4.70;99.90;;;;;;5039566;28;20382;-77
2022/03/25 01:12:39;;;;;;;86.97;54.20;;;4.60;99.90;;;;;;5039438;28;20041;-78
2022/03/25 01:15:06;;;;;;;87.18;53.30;;;4.50;99.90;;;;;;5040547;28;20090;-77
2022/03/25 01:17:31;;;;;;;89.82;53.83;;;4.50;99.90;;;;;;5057075;28;20411;-78
2022/03/25 01:19:57;;;;;;;87.78;54.53;;;4.40;99.90;;;;;;5039576;28;20129;-78
2022/03/25 01:22:23;;;;;;;89.90;54.33;;;4.50;99.90;;;;;;5039918;28;20045;-78
2022/03/25 01:24:49;;;;;;;85.03;54.75;;;4.60;99.90;;;;;;5055945;28;20063;-79
2022/03/25 01:27:15;;;;;;;89.68;56.10;;;4.60;99.90;;;;;;5056741;28;20414;-78
2022/03/25 01:29:40;;;;;;;82.28;53.42;;;4.60;99.90;;;;;;5056841;28;20112;-78
2022/03/25 01:32:07;;;;;;;87.10;52.60;;;4.60;99.90;;;;;;5057062;28;20049;-77
2022/03/25 01:34:33;;;;;;;83.22;52.53;;;4.50;99.90;;;;;;5056848;28;20362;-77
2022/03/25 01:36:59;;;;;;;77.15;49.17;;;4.60;99.90;;;;;;5039049;28;20047;-78
2022/03/25 01:39:25;;;;;;;78.75;49.60;;;4.70;99.90;;;;;;5057122;28;20045;-78
2022/03/25 01:41:57;;;;;;;81.13;50.42;;;4.60;99.90;;;;;;5056618;28;20113;-77
2022/03/25 01:44:25;;;;;;;80.90;50.13;;;4.50;99.90;;;;;;5039883;28;20088;-78
2022/03/25 01:46:55;;;;;;;77.35;48.38;;;4.50;99.90;;;;;;5039015;28;20040;-77
2022/03/25 01:49:23;;;;;;;79.30;48.92;;;4.50;99.90;;;;;;5056573;28;20048;-78
2022/03/25 01:52:08;;;;;;;75.93;48.78;;;4.50;99.90;;;;;;5038769;28;20044;-79
2022/03/25 01:54:36;;;;;;;76.13;48.72;;;4.40;99.90;;;;;;5056655;28;20037;-77
2022/03/25 01:57:07;;;;;;;78.05;47.70;;;4.50;99.90;;;;;;5056728;28;20063;-77
2022/03/25 01:59:37;;;;;;;73.63;47.53;;;4.50;99.90;;;;;;5056637;28;20461;-78
2022/03/25 02:02:09;;;;;;;74.25;46.72;;;4.50;99.90;;;;;;5038693;28;20435;-77
2022/03/25 02:04:40;;;;;;;75.13;47.00;;;4.50;99.90;;;;;;5056005;28;20152;-77
2022/03/25 02:07:06;;;;;;;72.63;46.35;;;4.50;99.90;;;;;;5022441;28;20447;-77
2022/03/25 02:09:32;;;;;;;74.28;47.33;;;4.50;99.90;;;;;;5005137;28;20059;-77
2022/03/25 02:12:02;;;;;;;68.13;45.03;;;4.40;99.90;;;;;;5040697;28;20049;-78
2022/03/25 02:14:36;;;;;;;73.75;47.38;;;4.40;99.90;;;;;;5057847;28;20040;-78
2022/03/25 02:17:04;;;;;;;73.15;46.42;;;4.40;99.90;;;;;;5057880;28;20051;-77
2022/03/25 02:19:33;;;;;;;69.18;44.88;;;4.30;99.90;;;;;;5040378;28;20067;-77
2022/03/25 02:22:00;;;;;;;72.05;45.47;;;4.30;99.90;;;;;;5040230;28;20045;-77
2022/03/25 02:24:26;;;;;;;73.53;47.05;;;4.30;99.90;;;;;;5040101;28;20053;-76
2022/03/25 02:26:52;;;;;;;74.35;47.35;;;4.30;99.90;;;;;;5056118;28;20032;-77
2022/03/25 02:29:17;;;;;;;70.43;43.40;;;4.30;99.90;;;;;;5055557;28;20501;-77
2022/03/25 02:31:48;;;;;;;73.55;46.55;;;4.30;99.90;;;;;;5038293;28;20076;-77
2022/03/25 02:34:13;;;;;;;74.63;47.03;;;4.20;99.90;;;;;;5056408;28;20052;-77
2022/03/25 02:36:41;;;;;;;72.50;45.33;;;4.20;99.90;;;;;;5032547;28;20057;-77
2022/03/25 02:39:11;;;;;;;69.95;46.05;;;4.30;99.90;;;;;;5055542;28;20060;-77
2022/03/25 02:41:36;;;;;;;73.85;44.90;;;4.20;99.90;;;;;;5038582;28;20377;-77
2022/03/25 02:44:03;;;;;;;68.35;45.60;;;4.20;99.90;;;;;;5055171;28;20124;-77
2022/03/25 02:46:28;;;;;;;75.63;47.97;;;4.20;99.90;;;;;;5038709;28;20355;-77
2022/03/25 02:48:57;;;;;;;76.47;48.25;;;4.20;99.90;;;;;;5038453;28;20037;-78
2022/03/25 02:51:23;;;;;;;75.28;48.67;;;4.20;99.90;;;;;;5038205;28;20049;-78
2022/03/25 02:53:49;;;;;;;72.95;48.03;;;4.20;99.90;;;;;;5038068;28;20354;-78
2022/03/25 02:56:14;;;;;;;73.65;46.25;;;4.10;99.90;;;;;;5037769;28;20053;-77
2022/03/25 02:58:40;;;;;;;76.70;48.22;;;4.10;99.90;;;;;;5054948;28;20040;-78
2022/03/25 03:01:15;;;;;;;72.45;45.08;;;4.20;99.90;;;;;;5021862;28;20071;-76
2022/03/25 03:03:46;;;;;;;;;;;4.10;99.90;;;;;;5038214;28;20056;-78
2022/03/25 03:06:14;;;;;;;77.00;46.58;;;4.00;99.90;;;;;;5055306;28;19943;-78
2022/03/25 03:08:41;;;;;;;72.28;44.42;;;4.00;99.90;;;;;;5037557;28;20166;-77
2022/03/25 03:11:08;;;;;;;70.05;43.03;;;3.90;99.90;;;;;;5037699;28;20037;-78
2022/03/25 03:13:33;;;;;;;72.68;44.28;;;3.90;99.90;;;;;;5038220;28;20036;-78
2022/03/25 03:15:59;;;;;;;71.20;44.10;;;3.90;99.90;;;;;;5055473;28;20055;-77
2022/03/25 03:18:25;;;;;;;75.35;45.13;;;3.90;99.90;;;;;;5021779;28;20127;-77
2022/03/25 03:20:50;;;;;;;73.97;46.53;;;3.90;99.90;;;;;;5054930;28;20040;-77
2022/03/25 03:23:16;;;;;;;78.15;48.75;;;3.80;99.90;;;;;;5055082;28;20140;-78
2022/03/25 03:25:41;;;;;;;76.63;48.13;;;3.90;99.90;;;;;;5037406;28;20049;-77
2022/03/25 03:28:08;;;;;;;79.63;48.85;;;3.90;99.90;;;;;;5020668;28;20052;-76
2022/03/25 03:30:36;;;;;;;75.07;47.45;;;3.90;99.90;;;;;;5054659;28;20424;-77
2022/03/25 03:33:04;;;;;;;79.28;46.95;;;3.80;99.90;;;;;;5054646;28;20041;-78
2022/03/25 03:35:34;;;;;;;84.55;47.97;;;3.90;99.90;;;;;;5037065;28;20470;-77
2022/03/25 03:38:04;;;;;;;71.18;45.13;;;3.80;99.90;;;;;;5037082;28;20083;-77
2022/03/25 03:40:35;;;;;;;78.35;49.08;;;3.80;99.90;;;;;;5054378;28;20052;-77
2022/03/25 03:43:07;;;;;;;78.50;46.88;;;3.90;99.90;;;;;;5055007;28;20048;-77
2022/03/25 03:45:53;;;;;;;73.32;46.58;;;3.80;99.90;;;;;;5054724;28;20094;-77
2022/03/25 03:48:21;;;;;;;84.45;48.70;;;3.80;99.90;;;;;;5057067;28;20041;-77
2022/03/25 03:50:59;;;;;;;76.07;48.55;;;3.80;99.90;;;;;;5058264;28;20041;-77
2022/03/25 03:53:33;;;;;;;78.65;49.53;;;3.80;99.90;;;;;;5056383;28;20053;-78
2022/03/25 03:56:15;;;;;;;87.00;49.38;;;3.80;99.90;;;;;;5041507;28;20084;-76
2022/03/25 03:58:44;;;;;;;82.07;48.53;;;3.70;99.90;;;;;;5041223;28;20037;-77
2022/03/25 04:01:33;;;;;;;;;;;;;;;;;;;;;
2022/03/25 04:04:12;;;;;;;82.97;48.75;;;3.90;99.90;;;;;;5058475;28;20044;-77
2022/03/25 04:06:44;;;;;;;78.30;49.90;;;3.80;99.90;;;;;;5058340;28;20037;-77
2022/03/25 04:09:27;;;;;;;80.60;49.00;;;3.80;99.90;;;;;;5058561;28;20045;-77
2022/03/25 04:11:53;;;;;;;83.95;49.65;;;3.80;99.90;;;;;;5040754;28;20045;-77
2022/03/25 04:14:27;;;;;;;84.07;49.58;;;3.80;99.90;;;;;;5058408;28;20122;-77
2022/03/25 04:17:00;;;;;;;79.25;47.22;;;3.80;99.90;;;;;;5058139;28;20119;-77
2022/03/25 04:19:29;;;;;;;86.50;50.70;;;3.80;99.90;;;;;;5040544;28;20095;-77
2022/03/25 04:22:01;;;;;;;85.97;52.17;;;3.70;99.90;;;;;;5040755;28;20056;-77
2022/03/25 04:24:36;;;;;;;89.40;51.95;;;3.70;99.90;;;;;;5000805;28;20050;-77
2022/03/25 04:27:09;;;;;;;83.07;48.70;;;3.80;99.90;;;;;;5000217;28;20054;-77
2022/03/25 04:29:39;;;;;;;85.75;49.78;;;3.70;99.90;;;;;;5000373;28;20068;-77
2022/03/25 04:32:08;;;;;;;81.50;50.08;;;3.70;99.90;;;;;;5000122;28;20050;-76
2022/03/25 04:34:34;;;;;;;80.63;49.22;;;3.70;99.90;;;;;;5016177;28;20069;-78
2022/03/25 04:37:04;;;;;;;82.85;49.45;;;3.70;99.90;;;;;;5015909;28;20472;-78
2022/03/25 04:39:30;;;;;;;87.03;50.42;;;3.70;99.90;;;;;;5016592;28;20049;-78
2022/03/25 04:41:58;;;;;;;84.88;49.55;;;3.70;99.90;;;;;;5000198;28;20124;-77
2022/03/25 04:44:27;;;;;;;86.93;49.20;;;3.60;99.90;;;;;;5016278;28;20046;-78
2022/03/25 04:46:57;;;;;;;81.97;49.13;;;3.60;99.90;;;;;;4982736;28;20443;-78
2022/03/25 04:49:29;;;;;;;79.05;47.72;;;3.60;99.90;;;;;;5025814;28;20045;-77
2022/03/25 04:52:06;;;;;;;75.43;46.38;;;3.50;99.90;;;;;;5058367;28;20041;-78
2022/03/25 04:54:41;;;;;;;77.40;46.65;;;3.50;99.90;;;;;;5037049;28;20049;-78
2022/03/25 04:57:21;;;;;;;83.32;49.03;;;3.50;99.90;;;;;;5057698;28;20044;-77
2022/03/25 05:00:02;;;;;;;91.47;53.05;;;3.60;99.90;;;;;;5057070;28;20055;-78
2022/03/25 05:02:42;;;;;;;92.07;54.05;;;3.50;99.90;;;;;;5039051;28;20530;-77
2022/03/25 05:05:08;;;;;;;96.97;53.70;;;3.50;99.90;;;;;;5057376;28;20051;-77
2022/03/25 05:08:04;;;;;;;91.30;52.95;;;3.50;99.90;;;;;;5040002;28;20102;-77
2022/03/25 05:10:38;;;;;;;90.63;52.42;;;3.60;99.90;;;;;;5051697;28;20053;-77
2022/03/25 05:13:07;;;;;;;86.85;51.55;;;3.50;99.90;;;;;;5040231;28;20104;-77
2022/03/25 05:15:36;;;;;;;90.03;52.40;;;3.50;99.90;;;;;;5040027;28;20055;-77
2022/03/25 05:18:02;;;;;;;87.22;49.90;;;3.60;99.90;;;;;;5057354;28;20037;-77
2022/03/25 05:20:28;;;;;;;83.88;50.00;;;3.60;99.90;;;;;;5039325;28;20040;-77
2022/03/25 05:22:56;;;;;;;87.03;52.30;;;3.60;99.90;;;;;;5056938;28;20048;-78
2022/03/25 05:25:24;;;;;;;84.53;50.03;;;3.60;99.90;;;;;;5057026;28;20335;-77
2022/03/25 05:27:57;;;;;;;85.47;50.53;;;3.50;99.90;;;;;;5056997;28;20451;-76
2022/03/25 05:30:28;;;;;;;83.13;50.35;;;3.50;99.90;;;;;;5057309;28;20056;-77
2022/03/25 05:33:02;;;;;;;84.57;50.92;;;3.50;99.90;;;;;;5056528;28;20430;-77
2022/03/25 05:35:39;;;;;;;83.60;50.95;;;3.40;99.90;;;;;;5039404;28;20079;-77
2022/03/25 05:38:12;;;;;;;87.50;51.05;;;3.50;99.90;;;;;;5056927;28;20410;-77
2022/03/25 05:40:41;;;;;;;88.78;50.78;;;3.50;99.90;;;;;;5056638;28;20105;-77
2022/03/25 05:43:14;;;;;;;88.55;51.97;;;3.50;99.90;;;;;;5039305;28;20045;-77
2022/03/25 05:45:45;;;;;;;86.22;48.72;;;3.50;99.90;;;;;;5038864;28;20106;-77
2022/03/25 05:48:11;;;;;;;84.68;50.28;;;3.60;99.90;;;;;;5056536;28;20041;-77
2022/03/25 05:50:42;;;;;;;83.70;50.55;;;3.50;99.90;;;;;;5039117;28;20447;-76
2022/03/25 05:53:09;;;;;;;89.07;51.85;;;3.50;99.90;;;;;;5056655;28;20041;-76
2022/03/25 05:56:15;;;;;;;;;;;;;;;;;;;;;
2022/03/25 05:59:19;;;;;;;81.60;49.10;;;3.60;99.90;;;;;;5056129;28;20076;-77
2022/03/25 06:05:51;;;;;;;;;;;;;;;;;;;;;
2022/03/25 06:08:37;;;;;;;83.15;50.42;;;3.80;99.90;;;;;;5054006;28;20084;-77
2022/03/25 06:14:48;;;;;;;92.38;50.38;;;3.80;99.90;;;;;;5055794;28;20455;-77
2022/03/25 06:17:42;;;;;;;92.22;53.47;;;3.80;99.90;;;;;;5055148;28;20121;-78
2022/03/25 06:20:33;;;;;;;87.63;52.22;;;3.90;99.90;;;;;;5042773;28;20072;-77
2022/03/25 06:23:12;;;;;;;82.07;50.33;;;4.00;99.90;;;;;;5055399;28;20049;-77
2022/03/25 06:25:48;;;;;;;82.18;50.13;;;4.00;99.90;;;;;;5055723;28;20049;-78
2022/03/25 06:28:32;;;;;;;89.82;52.70;;;4.10;99.90;;;;;;5021904;28;20431;-78
2022/03/25 06:31:04;;;;;;;87.13;50.97;;;4.10;99.90;;;;;;5055311;28;20037;-77
2022/03/25 06:33:34;;;;;;;85.55;50.72;;;4.10;99.90;;;;;;5055578;28;20402;-77
2022/03/25 06:36:02;;;;;;;82.03;47.83;;;4.20;99.90;;;;;;5055270;28;20111;-77
2022/03/25 06:38:34;;;;;;;84.72;49.20;;;4.10;99.90;;;;;;5038076;28;20451;-77
2022/03/25 06:41:14;;;;;;;91.82;50.72;;;4.20;99.90;;;;;;5055082;28;20509;-78
2022/03/25 06:43:49;;;;;;;88.13;52.88;;;4.30;99.90;;;;;;5055680;28;20041;-78
2022/03/25 06:46:18;;;;;;;89.35;50.60;;;4.30;99.90;;;;;;5055386;28;20489;-77
2022/03/25 06:48:49;;;;;;;90.78;51.40;;;4.40;99.90;;;;;;5055149;28;20490;-77
2022/03/25 06:51:20;;;;;;;86.75;52.65;;;4.40;99.90;;;;;;4996550;28;20054;-78
2022/03/25 06:53:57;;;;;;;92.28;54.78;;;4.50;99.90;;;;;;4997226;28;20165;-77
2022/03/25 06:56:41;;;;;;;93.18;54.10;;;4.60;99.90;;;;;;4997076;28;20531;-77
2022/03/25 06:59:21;;;;;;;97.53;55.58;;;4.60;99.90;;;;;;5013369;28;20337;-77
2022/03/25 07:09:06;;;;;;;92.45;53.45;;;4.80;99.90;;;;;;4995562;28;20042;-78
2022/03/25 07:12:01;;;;;;;90.40;52.75;;;4.90;99.90;;;;;;5002776;28;20140;-77
2022/03/25 07:15:32;;;;;;;;;;;;;;;;;;;;;
2022/03/25 07:27:09;;;;;;;92.13;54.92;;;5.30;99.90;;;;;;4954889;29;20043;-77
2022/03/25 07:36:33;;;;;;;96.63;54.38;;;6.00;99.90;;;;;;4973184;28;20417;-78
2022/03/25 07:39:08;;;;;;;100.13;57.13;;;6.10;99.90;;;;;;5043330;28;20061;-77
2022/03/25 07:41:46;;;;;;;94.22;56.63;;;6.20;99.90;;;;;;5035232;28;20053;-76
2022/03/25 07:44:47;;;;;;;94.93;55.22;;;6.40;99.90;;;;;;4994433;28;20057;-77
2022/03/25 07:47:19;;;;;;;91.93;53.00;;;6.50;99.90;;;;;;5012958;28;20531;-77
2022/03/25 07:49:45;;;;;;;84.72;51.50;;;6.60;99.90;;;;;;4996206;28;20053;-76
2022/03/25 07:52:15;;;;;;;82.45;51.58;;;6.70;99.90;;;;;;5012823;28;20061;-78
2022/03/25 07:54:41;;;;;;;80.20;50.50;;;6.80;99.90;;;;;;4996287;28;20072;-78
2022/03/25 07:57:07;;;;;;;73.60;48.10;;;6.90;99.90;;;;;;4996617;28;20501;-79
2022/03/25 07:59:33;;;;;;;74.60;48.08;;;6.90;99.90;;;;;;5012700;28;20084;-75
2022/03/25 08:01:58;;;;;;;76.63;47.53;;;7.00;99.90;;;;;;4996467;28;20065;-75
2022/03/25 08:04:24;;;;;;;70.25;45.42;;;7.10;99.90;;;;;;5012920;28;20104;-74
2022/03/25 08:06:54;;;;;;;67.97;42.70;;;7.20;99.90;;;;;;5012961;28;20107;-77
2022/03/25 08:09:20;;;;;;;66.55;43.33;;;7.20;99.90;;;;;;5042701;28;20100;-76
2022/03/25 08:11:46;;;;;;;67.25;42.80;;;7.30;99.90;;;;;;5053961;28;20047;-80
2022/03/25 08:14:16;;;;;;;64.30;41.10;;;7.30;99.90;;;;;;5054805;28;20049;-75
2022/03/25 08:16:42;;;;;;;59.88;39.90;;;7.40;99.90;;;;;;5054877;28;20063;-76
2022/03/25 08:19:08;;;;;;;63.30;39.63;;;7.50;99.90;;;;;;5037145;28;20435;-75
2022/03/25 08:21:34;;;;;;;59.33;40.42;;;7.50;99.90;;;;;;5054128;28;20044;-76
2022/03/25 08:29:30;;;;;;;60.55;38.28;;;7.70;99.90;;;;;;5054633;28;20064;-75
2022/03/25 08:31:56;;;;;;;61.05;36.85;;;7.80;99.90;;;;;;5054436;28;20041;-77
2022/03/25 08:34:29;;;;;;;58.53;38.53;;;7.80;99.90;;;;;;5039362;28;20059;-83
2022/03/25 08:37:13;;;;;;;59.47;38.22;;;7.80;99.90;;;;;;5040041;28;20044;-82
2022/03/25 08:39:59;;;;;;;56.10;36.90;;;7.90;99.90;;;;;;5058066;28;20080;-80
2022/03/25 08:42:25;;;;;;;57.42;36.38;;;8.00;99.90;;;;;;5040335;28;20044;-77
2022/03/25 08:44:50;;;;;;;58.13;36.30;;;8.10;99.90;;;;;;5057868;28;20462;-78
2022/03/25 08:47:16;;;;;;;54.22;34.13;;;8.10;99.90;;;;;;5057582;28;20107;-78
2022/03/25 08:49:42;;;;;;;54.47;34.47;;;8.20;99.90;;;;;;5057581;28;20048;-78
2022/03/25 08:52:08;;;;;;;54.05;35.55;;;8.20;99.90;;;;;;5057735;28;20047;-78
2022/03/25 08:54:33;;;;;;;52.92;33.60;;;8.30;99.90;;;;;;5023265;28;20123;-75
2022/03/25 08:57:00;;;;;;;57.20;34.03;;;8.30;99.90;;;;;;5057748;28;20080;-75
2022/03/25 08:59:26;;;;;;;53.25;33.88;;;8.30;99.90;;;;;;5057187;28;20052;-74
2022/03/25 09:01:51;;;;;;;50.67;33.35;;;8.40;99.90;;;;;;5057176;28;20394;-76
2022/03/25 09:04:17;;;;;;;51.85;32.17;;;8.50;99.90;;;;;;5057444;28;20029;-74
2022/03/25 09:06:43;;;;;;;49.17;31.33;;;8.60;99.90;;;;;;5057624;28;20370;-75
2022/03/25 09:09:08;;;;;;;49.05;30.83;;;8.60;99.90;;;;;;5057146;28;20033;-76
2022/03/25 09:11:34;;;;;;;47.00;31.30;;;8.70;99.90;;;;;;5039964;28;20071;-76
2022/03/25 09:14:00;;;;;;;49.33;30.45;;;8.80;99.90;;;;;;5057240;28;20048;-74
2022/03/25 09:16:26;;;;;;;49.78;31.17;;;8.80;99.90;;;;;;5056826;28;20052;-75
2022/03/25 09:18:52;;;;;;;44.90;29.55;;;8.90;99.90;;;;;;5057080;28;20041;-74
2022/03/25 09:21:18;;;;;;;51.03;31.23;;;9.00;99.90;;;;;;5039557;28;20040;-74
2022/03/25 09:23:43;;;;;;;48.08;29.25;;;9.10;99.90;;;;;;5040179;28;20107;-73
2022/03/25 09:26:09;;;;;;;47.80;28.15;;;9.10;99.90;;;;;;5056901;28;20440;-74
2022/03/25 09:28:34;;;;;;;45.70;26.05;;;9.20;99.90;;;;;;5057264;28;20044;-74
2022/03/25 09:31:00;;;;;;;46.67;27.35;;;9.30;99.90;;;;;;5056535;28;20036;-75
2022/03/25 09:33:26;;;;;;;43.15;26.38;;;9.30;99.90;;;;;;5039187;28;20037;-75
2022/03/25 09:35:52;;;;;;;42.28;27.02;;;9.30;99.90;;;;;;5039581;28;20419;-75
2022/03/25 09:38:17;;;;;;;39.50;26.20;;;9.40;99.90;;;;;;5056857;28;20045;-77
2022/03/25 09:40:45;;;;;;;42.17;25.88;;;9.50;99.90;;;;;;5039597;28;20470;-75
2022/03/25 09:43:12;;;;;;;40.63;25.42;;;9.60;99.90;;;;;;5058620;28;20049;-75
2022/03/25 09:45:37;;;;;;;42.25;24.02;;;9.60;99.90;;;;;;5052313;28;20036;-75
2022/03/25 09:48:04;;;;;;;49.40;25.30;;;9.70;99.90;;;;;;5038985;28;20064;-78
2022/03/25 09:50:33;;;;;;;41.65;26.02;;;9.70;99.90;;;;;;5056690;28;20052;-71
2022/03/25 09:52:59;;;;;;;41.72;25.35;;;9.80;99.90;;;;;;5056574;28;20045;-76
2022/03/25 09:55:24;;;;;;;42.08;26.67;;;9.90;99.90;;;;;;5039137;28;20045;-75
2022/03/25 09:57:50;;;;;;;42.58;26.33;;;10.00;99.90;;;;;;5056387;28;20076;-77
2022/03/25 10:00:18;;;;;;;38.05;24.88;;;10.00;99.90;;;;;;5038694;28;20053;-77
2022/03/25 10:02:47;;;;;;;41.80;25.23;;;10.10;99.90;;;;;;5038791;28;20355;-75
2022/03/25 10:05:22;;;;;;;40.03;24.63;;;10.10;99.90;;;;;;5064060;28;20028;-75
2022/03/25 10:07:54;;;;;;;36.83;25.15;;;10.20;99.90;;;;;;5054468;28;20041;-74
2022/03/25 10:10:22;;;;;;;41.03;25.02;;;10.20;99.90;;;;;;5038382;28;20080;-73
2022/03/25 10:12:50;;;;;;;37.72;23.88;;;10.20;99.90;;;;;;5056027;28;20432;-73
2022/03/25 10:15:20;;;;;;;38.92;24.23;;;10.30;99.90;;;;;;5056160;28;20048;-69
2022/03/25 10:17:58;;;;;;;35.83;23.98;;;10.30;99.90;;;;;;5038485;28;20504;-70
2022/03/25 10:20:34;;;;;;;41.10;24.20;;;10.30;99.90;;;;;;5056147;28;20041;-69
2022/03/25 10:23:02;;;;;;;42.00;24.15;;;10.40;99.90;;;;;;5055444;28;20063;-70
2022/03/25 10:25:32;;;;;;;38.00;22.58;;;10.50;99.90;;;;;;5056167;28;20037;-69
2022/03/25 10:27:57;;;;;;;33.47;23.17;;;10.60;99.90;;;;;;5055708;28;20033;-69
2022/03/25 10:30:43;;;;;;;31.92;21.52;;;10.60;99.90;;;;;;5055664;28;20048;-71
2022/03/25 10:33:20;;;;;;;34.65;20.67;;;10.80;99.90;;;;;;5055524;28;20063;-71
2022/03/25 10:35:53;;;;;;;34.72;21.83;;;10.90;99.90;;;;;;5054684;28;20351;-70
2022/03/25 10:38:21;;;;;;;33.05;20.40;;;10.90;99.90;;;;;;5055063;28;20115;-69
2022/03/25 10:40:54;;;;;;;32.00;21.08;;;10.90;99.90;;;;;;5055831;28;20060;-70
2022/03/25 10:43:21;;;;;;;30.20;18.17;;;11.10;99.90;;;;;;5053586;28;20045;-70
2022/03/25 10:45:47;;;;;;;32.97;20.25;;;11.10;99.90;;;;;;5054623;28;20036;-73
2022/03/25 10:48:20;;;;;;;31.10;19.52;;;11.10;99.90;;;;;;5055152;28;20052;-72
2022/03/25 10:51:10;;;;;;;31.10;20.17;;;11.20;99.90;;;;;;5055433;28;20041;-72
2022/03/25 10:53:38;;;;;;;31.17;20.15;;;11.30;99.90;;;;;;5038008;28;20045;-72
2022/03/25 10:56:10;;;;;;;33.05;19.95;;;11.40;99.90;;;;;;5055201;28;20044;-71
2022/03/25 10:58:36;;;;;;;34.85;20.77;;;11.50;99.90;;;;;;5055076;28;20048;-73
2022/03/25 11:01:08;;;;;;;31.23;21.63;;;11.50;99.90;;;;;;5054907;28;20450;-70
2022/03/25 11:03:35;;;;;;;32.97;21.38;;;11.60;99.90;;;;;;5055022;28;20037;-74
2022/03/25 11:06:01;;;;;;;31.80;19.85;;;11.60;99.90;;;;;;5055055;28;20045;-71
2022/03/25 11:08:28;;;;;;;31.23;20.88;;;11.70;99.90;;;;;;5055278;28;20048;-71
2022/03/25 11:10:54;;;;;;;30.35;20.15;;;11.70;99.90;;;;;;5054684;28;20044;-70
2022/03/25 11:13:22;;;;;;;32.78;19.45;;;11.80;99.90;;;;;;5054715;28;20156;-71
2022/03/25 11:15:50;;;;;;;32.55;20.55;;;11.80;99.90;;;;;;5055200;28;20047;-71
2022/03/25 11:18:18;;;;;;;34.15;20.85;;;11.90;99.90;;;;;;5054641;28;20457;-71
2022/03/25 11:20:44;;;;;;;26.25;18.60;;;12.10;99.90;;;;;;5055046;28;20044;-72
2022/03/25 11:23:15;;;;;;;36.58;19.83;;;12.10;99.90;;;;;;5054492;28;20506;-71
2022/03/25 11:25:50;;;;;;;30.90;20.70;;;12.10;99.90;;;;;;5054524;28;20041;-72
2022/03/25 11:28:19;;;;;;;30.50;19.95;;;12.20;99.90;;;;;;5054690;28;20051;-73
2022/03/25 11:30:57;;;;;;;33.75;20.35;;;12.20;99.90;;;;;;5054588;28;20393;-71
2022/03/25 11:33:23;;;;;;;32.42;20.15;;;12.30;99.90;;;;;;5054693;28;20059;-73
2022/03/25 11:36:13;;;;;;;31.15;20.58;;;12.40;99.90;;;;;;5054730;28;20510;-74
2022/03/25 11:38:39;;;;;;;31.83;20.80;;;12.40;99.90;;;;;;5054633;28;20056;-74
2022/03/25 11:41:25;;;;;;;32.05;20.92;;;12.50;99.90;;;;;;5054584;28;20104;-74
2022/03/25 11:44:23;;;;;;;33.78;20.75;;;12.60;99.90;;;;;;5054587;28;20174;-75
2022/03/25 11:47:01;;;;;;;32.20;19.38;;;12.60;99.90;;;;;;5038712;28;20057;-73
2022/03/25 11:49:36;;;;;;;32.35;19.92;;;12.60;99.90;;;;;;5054444;28;20091;-75
2022/03/25 11:52:16;;;;;;;39.40;25.45;;;12.60;99.90;;;;;;5054751;28;20415;-73
2022/03/25 11:54:43;;;;;;;40.00;26.17;;;12.80;99.90;;;;;;5054228;28;20033;-73
2022/03/25 11:57:23;;;;;;;41.78;26.83;;;12.80;99.90;;;;;;5053717;28;20090;-74
2022/03/25 11:59:58;;;;;;;44.28;29.58;;;12.90;99.90;;;;;;5054576;28;20044;-73
2022/03/25 12:02:31;;;;;;;42.63;28.77;;;12.90;99.90;;;;;;5037729;28;20048;-72
2022/03/25 12:04:58;;;;;;;46.47;28.50;;;13.10;99.90;;;;;;5054587;28;20091;-73
2022/03/25 12:07:24;;;;;;;45.28;26.73;;;13.20;99.90;;;;;;5054214;28;20036;-74
2022/03/25 12:09:50;;;;;;;41.28;27.23;;;13.10;99.90;;;;;;5058002;28;20044;-74
2022/03/25 12:12:15;;;;;;;41.42;26.98;;;13.10;99.90;;;;;;5041310;28;20044;-74
2022/03/25 12:15:11;;;;;;;42.65;28.13;;;13.20;99.90;;;;;;5058298;28;20052;-73
2022/03/25 12:17:37;;;;;;;;;;;13.30;99.90;;;;;;5058721;28;20091;-75
2022/03/25 12:20:04;;;;;;;34.53;22.35;;;13.20;99.90;;;;;;5057930;28;19921;-73
2022/03/25 12:22:34;;;;;;;32.80;21.73;;;13.40;99.90;;;;;;5058153;28;20036;-73
2022/03/25 12:25:13;;;;;;;36.85;23.90;;;13.40;99.90;;;;;;5023285;28;20091;-73
2022/03/25 12:27:40;;;;;;;36.70;22.80;;;13.50;99.90;;;;;;5058063;28;20047;-74
2022/03/25 12:30:07;;;;;;;34.22;21.95;;;13.50;99.90;;;;;;5040579;28;20040;-73
2022/03/25 12:32:35;;;;;;;39.30;24.48;;;13.50;99.90;;;;;;5057817;28;20048;-73
2022/03/25 12:35:08;;;;;;;39.05;23.40;;;13.50;99.30;;;;;;5057897;28;20049;-75
2022/03/25 12:37:42;;;;;;;34.10;21.10;;;13.70;97.70;;;;;;5057421;28;20079;-75
2022/03/25 12:40:27;;;;;;;31.17;20.23;;;13.90;96.80;;;;;;5057741;28;20048;-75
2022/03/25 12:42:57;;;;;;;34.90;21.70;;;13.80;93.80;;;;;;5057786;28;20127;-73
2022/03/25 12:45:34;;;;;;;29.75;20.25;;;13.80;96.70;;;;;;5057836;28;20336;-74
2022/03/25 12:48:17;;;;;;;39.40;23.67;;;14.00;96.80;;;;;;5058213;28;20427;-74
2022/03/25 12:50:47;;;;;;;36.35;22.52;;;14.10;96.20;;;;;;5057729;28;20037;-73
2022/03/25 12:53:14;;;;;;;33.72;22.80;;;14.10;97.30;;;;;;5057618;28;20089;-74
2022/03/25 12:55:41;;;;;;;34.17;21.08;;;14.20;97.70;;;;;;5057774;28;20041;-73
2022/03/25 12:58:10;;;;;;;33.60;22.27;;;14.30;98.40;;;;;;5055272;28;20408;-74
2022/03/25 13:00:41;;;;;;;35.22;20.70;;;14.30;98.20;;;;;;5057770;28;20045;-74
2022/03/25 13:03:09;;;;;;;33.13;22.15;;;14.50;98.50;;;;;;5057667;28;20045;-72
2022/03/25 13:05:34;;;;;;;35.63;20.95;;;14.50;99.50;;;;;;5057838;28;20490;-74
2022/03/25 13:08:01;;;;;;;32.28;21.83;;;14.60;99.90;;;;;;5057074;28;20128;-74
2022/03/25 13:10:30;;;;;;;37.42;22.60;;;14.70;99.90;;;;;;5057731;28;20056;-74
2022/03/25 13:12:59;;;;;;;37.45;22.30;;;14.80;99.90;;;;;;5057306;28;20123;-73
2022/03/25 13:15:33;;;;;;;40.65;22.80;;;14.90;99.90;;;;;;5039523;28;20041;-75
2022/03/25 13:18:01;;;;;;;32.30;21.45;;;15.00;98.90;;;;;;5057455;28;20052;-75
2022/03/25 13:20:33;;;;;;;33.22;20.17;;;15.10;99.90;;;;;;5055489;28;20047;-74
2022/03/25 13:23:10;;;;;;;37.58;19.60;;;15.30;98.00;;;;;;5057439;28;20351;-75
2022/03/25 13:25:42;;;;;;;30.33;18.63;;;15.40;98.60;;;;;;5057072;28;20064;-73
2022/03/25 13:28:16;;;;;;;33.10;19.58;;;15.50;99.10;;;;;;5056750;28;20072;-76
2022/03/25 13:30:44;;;;;;;28.13;18.27;;;15.60;98.00;;;;;;5057053;28;20045;-75
2022/03/25 13:33:16;;;;;;;30.05;19.45;;;15.70;98.50;;;;;;5057013;28;20470;-74
2022/03/25 13:35:52;;;;;;;27.75;18.77;;;15.80;97.90;;;;;;5057503;28;20044;-75